Terminal Aerodrome Forecast
Issued by NWS Duluth, MN

Home | Current Version | Previous Version | Text Only | Print | Product List | Glossary On
Versions: 1 2 3 4 5 6 7 8 9 10 11 12 13 14 15 16 17 18 19 20 21 22 23 24 25 26 27 28 29 30 31 32 33 34
437
FTUS43 KDLH 300344 AAC
TAFDLH
TAF AMD
KDLH 300344Z 3004/3024 08008KT 1SM BR OVC002
      TEMPO 3005/3006 1/2SM FG VV002
     FM300600 08007KT 1SM BR OVC002
      TEMPO 3009/3013 1/2SM FG VV002
     FM301500 08007KT 5SM BR BKN006
     FM301700 08011KT P6SM SCT010 SCT035=

USA.gov is the U.S. government's official web portal to all federal, state and local government web resources and services.